• Join FlightAware (Why Join?)
  • Login
  • US Flag 
06:57PM EST


 

Airport Tracker/Info


-or-


 

Live Flight TrackerFlight Track Log ✈ DAL1462 ✈ 05-May-2013 ✈ KMSY - KATL

Flight Track Log - Related Links

Times and Time Zones

All times are in EDT time to prevent confusion due to time zone crossing. See the DAL1462 flight status page for this flight to view local times or setup timezone preferences in your user account.

Time Position Orientation Groundspeed Altitude Reporting Facility
EDT Latitude Longitude Course Direction KTS MPH feet Rate Location/Type
01:34PM 29.9956 -90.2794 47° Northeast 152 175 700  Level Houston Center
01:36PM 30.0536 -90.3347 321° Northwest 252 290 3,700 2,520 Climbing Houston Center
01:37PM 30.2182 -89.9231 47° Northeast  Level FlightAware Approximate
01:37PM 30.1158 -90.3067 21° North 269 310 7,000  Level Houston Center
01:38PM 30.2972 -89.8126 52° Northeast  Level FlightAware Approximate
01:38PM 30.1567 -90.2192 62° Northeast 302 348 9,800  Level Houston Center
01:39PM 30.3746 -89.7005 49° Northeast  Level FlightAware Approximate
01:39PM 30.2028 -90.1258 60° Northeast 331 381 11,200  Level Houston Center
01:40PM 30.4580 -89.5942 47° Northeast  Level FlightAware Approximate
01:40PM 30.2700 -89.9911 60° Northeast 396 456 13,400  Level Houston Center
01:41PM 30.3308 -89.8714 59° Northeast 421 484 15,800 1,860 Climbing Houston Center
01:42PM 30.3872 -89.7656 58° Northeast 439 505 17,300 1,860 Climbing Houston Center
01:43PM 30.4675 -89.6125 59° Northeast 455 524 19,700 1,920 Climbing Houston Center
01:44PM 30.5431 -89.4872 55° Northeast 470 541 21,400 1,560 Climbing Houston Center
01:45PM 30.6200 -89.3589 55° Northeast 483 556 23,000 1,500 Climbing Houston Center
01:46PM 30.6969 -89.2258 56° Northeast 495 570 24,500 1,500 Climbing Houston Center
01:47PM 30.7742 -89.0897 57° Northeast 504 580 26,200 1,560 Climbing Houston Center
01:48PM 30.8519 -88.9544 56° Northeast 504 580 27,800 1,440 Climbing Houston Center
01:49PM 30.9336 -88.8186 55° Northeast 500 575 29,200 1,440 Climbing Houston Center
01:50PM 31.0269 -88.6564 56° Northeast 501 577 30,800 1,200 Climbing Houston Center
01:51PM 31.1019 -88.5272 56° Northeast 499 574 31,700 840 Climbing Houston Center
01:52PM 31.1828 -88.3947 54° Northeast 502 578 32,600 720 Climbing Houston Center
01:53PM 31.2586 -88.2822 52° Northeast 504 580 33,000 180 Climbing Atlanta Center
01:54PM 31.3425 -88.1450 54° Northeast 504 580 33,000  Level Atlanta Center
01:54PM 31.3550 -88.1169 62° Northeast 506 582 33,000  Level Houston Center
01:55PM 31.4219 -88.0125 53° Northeast 499 574 33,000  Level Atlanta Center
01:56PM 31.5014 -87.8772 55° Northeast 504 580 33,000  Level Atlanta Center
01:57PM 31.5825 -87.7442 54° Northeast 504 580 33,000  Level Atlanta Center
01:58PM 31.6639 -87.6058 55° Northeast 504 580 33,000  Level Atlanta Center
01:59PM 31.7469 -87.4700 54° Northeast 504 580 33,000  Level Atlanta Center
02:00PM 31.8300 -87.3314 55° Northeast 504 580 33,000  Level Atlanta Center
02:01PM 31.9067 -87.1922 57° Northeast 504 580 33,000 -780 Level Atlanta Center
02:02PM 31.9875 -87.0556 55° Northeast 504 580 31,500 -1,500 Descending Atlanta Center
02:03PM 32.0681 -86.9161 56° Northeast 504 580 30,100 -1,260 Descending Atlanta Center
02:04PM 32.1525 -86.7767 54° Northeast 504 580 29,000 -600 Descending Atlanta Center
02:05PM 32.2303 -86.6564 53° Northeast 504 580 29,000  Level Atlanta Center
02:06PM 32.3125 -86.5161 55° Northeast 509 586 29,000  Level Atlanta Center
02:07PM 32.3950 -86.3536 59° Northeast 529 609 29,000  Level Atlanta Center
02:08PM 32.4789 -86.2106 55° Northeast 523 602 29,000 -600 Level Atlanta Center
02:09PM 32.5650 -86.0622 55° Northeast 523 602 27,800 -1,620 Descending Atlanta Center
02:10PM 32.6444 -85.9211 56° Northeast 523 602 25,800 -1,800 Descending Atlanta Center
02:11PM 32.7300 -85.7772 55° Northeast 523 602 24,300 -1,560 Descending Atlanta Center
02:12PM 32.8111 -85.6403 55° Northeast 523 602 22,700 -1,500 Descending Atlanta Center
02:13PM 32.8942 -85.5058 54° Northeast 512 589 21,300 -1,200 Descending Atlanta Center
02:14PM 32.9731 -85.3758 54° Northeast 495 570 20,300 -1,620 Descending Atlanta Center
02:15PM 33.0472 -85.2531 54° Northeast 482 555 18,100 -2,100 Descending Atlanta Center
02:16PM 33.1194 -85.1350 54° Northeast 453 521 16,100 -2,040 Descending Atlanta Center
02:17PM 33.1872 -85.0242 54° Northeast 430 495 14,100 -1,500 Descending Atlanta Center
02:18PM 33.2525 -84.9206 53° Northeast 406 467 13,100 -900 Descending Atlanta Center
02:19PM 33.3283 -84.8294 45° Northeast 385 443 12,300 -600 Descending Atlanta Center
02:20PM 33.4019 -84.7356 47° Northeast 385 443 12,000 -180 Descending Atlanta Center
02:21PM 33.4692 -84.6489 47° Northeast 361 415 12,000 -240 Level Atlanta Center
02:22PM 33.5239 -84.5769 48° Northeast 310 357 11,600 -540 Descending Atlanta Center
02:22PM 33.5333 -84.5500 67° East 280 322 11,300 -1,320 Descending Atlanta TRACON
02:23PM 33.5500 -84.4667 76° East 259 298 10,000 -1,620 Descending Atlanta TRACON
02:24PM 33.5500 -84.4000 90° East 249 287 8,300 -1,980 Descending Atlanta TRACON
02:25PM 33.5500 -84.3167 90° East 232 267 6,100 -2,280 Descending Atlanta TRACON
02:26PM 33.5667 -84.2500 73° East 239 275 4,000 -1,560 Descending Atlanta TRACON
02:27PM 33.6167 -84.3000 320° Northwest 197 227 3,000 -960 Descending Atlanta TRACON
02:28PM 33.6167 -84.3500 270° West 169 194 2,100 -900 Descending Atlanta TRACON
02:29PM 33.6167 -84.4000 270° West 138 159 1,300 -840 Descending Atlanta TRACON